Time;durP1;ratioP1;P1;durP2;ratioP2;P2;SDS_P1;SDS_P2;PMS_P1;PMS_P2;Temp;Humidity;BMP_temperature;BMP_pressure;BME280_temperature;BME280_humidity;BME280_pressure;Samples;Min_cycle;Max_cycle;Signal;HPM_P1;HPM_P2
2022/04/19 00:01:45;;;;;;;16.52;13.48;;;;;;;8.49;65.69;101423.56;5111910;28;20431;-72
2022/04/19 00:04:11;;;;;;;16.05;12.40;;;;;;;8.45;65.61;101416.66;5111141;28;20030;-72
2022/04/19 00:06:37;;;;;;;14.93;12.27;;;;;;;8.42;64.94;101414.06;5112632;28;20023;-72
2022/04/19 00:09:04;;;;;;;16.80;12.73;;;;;;;8.39;65.33;101419.28;5114665;27;20028;-72
2022/04/19 00:11:29;;;;;;;16.27;12.63;;;;;;;8.31;65.05;101408.06;5115661;28;20022;-72
2022/04/19 00:13:54;;;;;;;18.70;11.98;;;;;;;8.32;64.56;101410.63;5115134;28;20028;-72
2022/04/19 00:16:20;;;;;;;17.63;11.80;;;;;;;8.30;64.57;101401.09;5114457;28;20055;-72
2022/04/19 00:18:45;;;;;;;18.15;11.93;;;;;;;8.30;64.02;101401.09;5111514;28;20028;-72
2022/04/19 00:21:10;;;;;;;16.80;12.60;;;;;;;8.31;65.05;101408.06;5113799;28;20096;-72
2022/04/19 00:23:35;;;;;;;16.25;11.98;;;;;;;8.22;64.86;101408.94;5112187;28;20019;-72
2022/04/19 00:26:01;;;;;;;17.42;11.93;;;;;;;8.12;64.88;101397.75;5116009;28;20445;-72
2022/04/19 00:28:27;;;;;;;15.48;12.10;;;;;;;8.17;64.97;101396.00;5113351;28;20052;-72
2022/04/19 00:30:52;;;;;;;14.48;11.30;;;;;;;8.17;65.41;101406.38;5114176;28;20035;-72
2022/04/19 00:33:17;;;;;;;16.17;11.88;;;;;;;8.12;64.73;101402.94;5115598;28;20080;-71
2022/04/19 00:35:43;;;;;;;17.50;11.75;;;;;;;8.10;65.65;101396.88;5112876;28;20015;-72
2022/04/19 00:38:09;;;;;;;17.48;12.38;;;;;;;8.09;65.18;101394.28;5110706;28;20055;-72
2022/04/19 00:40:34;;;;;;;14.95;11.63;;;;;;;8.08;65.72;101396.03;5114426;28;20051;-72
2022/04/19 00:43:01;;;;;;;18.25;12.45;;;;;;;8.05;67.32;101396.03;5115051;28;20059;-72
2022/04/19 00:45:27;;;;;;;17.38;11.57;;;;;;;8.03;65.89;101395.19;5113600;28;20028;-73
2022/04/19 00:47:55;;;;;;;16.70;11.80;;;;;;;7.97;66.42;101392.59;5112863;28;20456;-73
2022/04/19 00:50:22;;;;;;;15.32;12.10;;;;;;;7.94;66.60;101395.19;5113020;28;20487;-72
2022/04/19 00:52:48;;;;;;;15.60;12.13;;;;;;;7.93;66.78;101399.53;5113523;28;20126;-72
2022/04/19 00:55:13;;;;;;;16.20;12.20;;;;;;;7.93;67.91;101391.75;5112355;28;20111;-72
2022/04/19 00:57:40;;;;;;;18.48;11.95;;;;;;;7.91;67.55;101393.50;5104222;28;20023;-73
2022/04/19 01:00:08;;;;;;;16.80;11.40;;;;;;;7.87;67.41;101394.38;5112631;28;20459;-72
2022/04/19 01:02:35;;;;;;;15.98;12.00;;;;;;;7.83;68.43;101395.25;5114735;28;20052;-72
2022/04/19 01:05:00;;;;;;;16.48;11.95;;;;;;;7.81;68.25;101388.31;5114415;27;20023;-72
2022/04/19 01:07:25;;;;;;;17.30;12.85;;;;;;;7.83;69.06;101397.00;5104758;27;20091;-72
2022/04/19 01:09:50;;;;;;;15.48;12.10;;;;;;;7.79;68.51;101397.88;5110544;28;20024;-72
2022/04/19 01:15:05;;;;;;;14.48;11.52;;;;;;;7.69;69.50;101397.03;5114497;28;20458;-71
2022/04/19 01:17:33;;;;;;;16.13;12.82;;;;;;;7.63;69.15;101387.53;5111932;28;20035;-72
2022/04/19 01:20:00;;;;;;;15.77;12.23;;;;;;;7.62;69.18;101391.00;5114817;28;20043;-72
2022/04/19 01:22:25;;;;;;;18.02;13.48;;;;;;;7.58;68.71;101383.22;5111881;28;20392;-72
2022/04/19 01:24:51;;;;;;;15.73;12.43;;;;;;;7.58;68.67;101389.25;5111582;28;20482;-72
2022/04/19 01:27:16;;;;;;;15.35;12.48;;;;;;;7.58;69.46;101383.22;5112544;28;20019;-72
2022/04/19 01:29:42;;;;;;;15.68;12.13;;;;;;;7.55;68.84;101389.25;5114268;28;20019;-72
2022/04/19 01:32:08;;;;;;;15.88;12.93;;;;;;;7.48;69.05;101377.19;5112240;28;20463;-72
2022/04/19 01:34:33;;;;;;;16.88;12.95;;;;;;;7.47;69.62;101384.09;5113942;28;20139;-72
2022/04/19 01:36:58;;;;;;;18.15;12.70;;;;;;;7.46;68.42;101382.38;5113769;27;20023;-72
2022/04/19 01:42:09;;;;;;;19.17;13.52;;;;;;;7.37;68.87;101373.75;5113825;28;20506;-72
2022/04/19 01:44:36;;;;;;;16.95;12.52;;;;;;;7.33;69.42;101383.28;5111844;28;20372;-72
2022/04/19 01:47:02;;;;;;;16.35;13.10;;;;;;;7.27;69.44;101376.34;5113798;28;20051;-72
2022/04/19 01:49:27;;;;;;;19.80;13.73;;;;;;;7.25;69.17;101369.44;5111029;28;20083;-72
2022/04/19 01:51:52;;;;;;;16.83;12.65;;;;;;;7.23;69.90;101377.22;5111742;28;20436;-72
2022/04/19 01:54:18;;;;;;;24.15;13.23;;;;;;;7.21;69.84;101373.75;5113530;28;20038;-72
2022/04/19 01:56:44;;;;;;;17.08;12.27;;;;;;;7.16;70.16;101372.03;5108612;28;20040;-72
2022/04/19 01:59:09;;;;;;;16.63;12.90;;;;;;;7.15;70.20;101371.19;5102381;28;20023;-72
2022/04/19 02:01:34;;;;;;;19.60;13.52;;;;;;;7.08;70.17;101364.28;5110844;28;20031;-72
2022/04/19 02:04:00;;;;;;;16.98;13.00;;;;;;;7.10;70.25;101372.94;5111692;28;21888;-72
2022/04/19 02:06:26;;;;;;;19.30;14.20;;;;;;;7.08;70.96;101371.19;5110832;28;20034;-72
2022/04/19 02:08:51;;;;;;;18.25;13.70;;;;;;;7.05;70.11;101366.88;5110616;28;20475;-72
2022/04/19 02:11:17;;;;;;;20.38;14.05;;;;;;;7.01;70.21;101375.50;5112785;28;20030;-71
2022/04/19 02:13:42;;;;;;;20.33;13.45;;;;;;;6.99;70.78;101379.81;5111903;28;20518;-72
2022/04/19 02:16:09;;;;;;;18.92;14.40;;;;;;;6.94;70.48;101377.25;5112810;28;20024;-72
2022/04/19 02:18:34;;;;;;;21.40;14.45;;;;;;;6.92;69.94;101378.97;5110263;28;20479;-72
2022/04/19 02:21:00;;;;;;;19.10;14.38;;;;;;;6.84;70.20;101366.88;5112317;28;20051;-72
2022/04/19 02:23:26;;;;;;;24.33;15.48;;;;;;;6.84;70.27;101366.88;5111418;27;20471;-72
2022/04/19 02:25:55;;;;;;;20.45;14.80;;;;;;;6.83;70.61;101371.19;5112276;28;20039;-72
2022/04/19 02:28:21;;;;;;;19.77;14.50;;;;;;;6.79;71.11;101367.72;5111367;28;20024;-72
2022/04/19 02:30:46;;;;;;;21.35;14.32;;;;;;;6.78;70.94;101365.16;5112063;28;20027;-72
2022/04/19 02:33:12;;;;;;;19.85;13.90;;;;;;;6.75;71.17;101357.38;5113343;28;20032;-72
2022/04/19 02:35:38;;;;;;;20.33;14.77;;;;;;;6.70;71.06;101362.56;5111464;28;20034;-72
2022/04/19 02:38:03;;;;;;;20.15;14.68;;;;;;;6.66;70.84;101363.41;5111927;28;20556;-72
2022/04/19 02:40:28;;;;;;;17.88;14.70;;;;;;;6.63;70.59;101363.38;5113091;28;20051;-72
2022/04/19 02:42:55;;;;;;;19.33;14.65;;;;;;;6.61;71.04;101364.28;5108198;28;20027;-72
2022/04/19 02:45:21;;;;;;;23.33;15.27;;;;;;;6.58;71.80;101359.94;5113058;28;20103;-72
2022/04/19 02:48:01;;;;;;;19.83;14.82;;;;;;;6.54;71.28;101359.09;5110798;28;20020;-71
2022/04/19 02:50:27;;;;;;;21.25;15.57;;;;;;;6.53;70.78;101352.16;5104421;28;20055;-72
2022/04/19 02:52:52;;;;;;;19.02;14.80;;;;;;;6.50;70.36;101356.47;5112044;28;20071;-72
2022/04/19 02:55:17;;;;;;;22.10;15.20;;;;;;;6.47;70.67;101351.28;5110684;28;20070;-72
2022/04/19 02:57:43;;;;;;;24.92;16.08;;;;;;;6.43;69.87;101349.56;5091367;28;20020;-72
2022/04/19 03:00:08;;;;;;;20.70;15.40;;;;;;;6.44;70.29;101349.56;5109084;28;20073;-71
2022/04/19 03:02:34;;;;;;;19.42;15.32;;;;;;;6.37;70.94;101354.72;5105959;28;20038;-72
2022/04/19 03:04:59;;;;;;;22.83;15.95;;;;;;;6.35;70.55;101352.16;5110823;28;20436;-71
2022/04/19 03:07:24;;;;;;;21.42;15.77;;;;;;;6.31;70.82;101346.09;5111350;28;20406;-72
2022/04/19 03:09:50;;;;;;;20.58;16.38;;;;;;;6.28;71.03;101345.22;5109929;28;20043;-72
2022/04/19 03:12:15;;;;;;;21.00;16.25;;;;;;;6.19;71.75;101335.69;5112722;28;20382;-71
2022/04/19 03:14:41;;;;;;;23.08;16.17;;;;;;;6.19;71.57;101348.66;5110247;28;20031;-72
2022/04/19 03:17:07;;;;;;;19.45;16.13;;;;;;;6.11;72.08;101345.16;5110236;28;20478;-72
2022/04/19 03:19:32;;;;;;;20.67;15.95;;;;;;;6.13;71.61;101351.22;5104972;28;20149;-72
2022/04/19 03:21:57;;;;;;;20.90;15.80;;;;;;;6.11;71.70;101352.91;5112870;28;20032;-72
2022/04/19 03:30:14;;;;;;;22.17;16.20;;;;;;;6.00;71.84;101349.44;5104447;28;20050;-72
2022/04/19 03:32:42;;;;;;;24.92;16.30;;;;;;;5.97;71.83;101354.63;5109097;28;20051;-72
2022/04/19 03:35:08;;;;;;;23.58;17.20;;;;;;;5.95;72.80;101351.16;5111073;28;20096;-72
2022/04/19 03:37:33;;;;;;;21.17;16.42;;;;;;;5.89;72.84;101354.56;5109540;28;20071;-71
2022/04/19 03:39:58;;;;;;;20.73;16.20;;;;;;;5.84;72.72;101349.34;5109754;28;20051;-71
2022/04/19 03:42:24;;;;;;;21.90;17.23;;;;;;;5.87;72.90;101359.72;5112424;28;20486;-72
2022/04/19 03:44:49;;;;;;;26.52;17.75;;;;;;;5.84;73.00;101353.66;5111236;28;20795;-71
2022/04/19 03:47:15;;;;;;;24.63;17.25;;;;;;;5.80;73.07;101347.63;5112369;28;20051;-72
2022/04/19 03:49:41;;;;;;;25.98;17.90;;;;;;;5.71;73.37;101342.41;5108744;28;20027;-72
2022/04/19 03:52:07;;;;;;;25.65;18.55;;;;;;;5.71;73.95;101352.75;5111665;28;20043;-72
2022/04/19 03:54:34;;;;;;;29.90;18.77;;;;;;;5.73;73.33;101352.78;5108890;28;20388;-72
2022/04/19 03:57:09;;;;;;;25.30;18.17;;;;;;;5.71;73.21;101352.75;5109764;28;20107;-72
2022/04/19 03:59:39;;;;;;;24.70;18.35;;;;;;;5.69;73.79;101351.88;5105444;28;20447;-72
2022/04/19 04:02:06;;;;;;;25.90;17.75;;;;;;;5.61;73.64;101356.16;5094709;28;20027;-71
2022/04/19 04:04:32;;;;;;;24.33;18.10;;;;;;;5.60;73.94;101357.00;5111318;28;20083;-72
2022/04/19 04:06:58;;;;;;;23.42;18.20;;;;;;;5.59;74.15;101363.03;5110003;28;20471;-72
2022/04/19 04:09:24;;;;;;;28.83;18.65;;;;;;;5.56;73.81;101353.53;5101622;28;20053;-72
2022/04/19 04:11:50;;;;;;;24.23;18.90;;;;;;;5.54;74.01;101359.56;5098766;28;20097;-72
2022/04/19 04:14:15;;;;;;;26.05;18.27;;;;;;;5.51;74.25;101354.38;5108121;28;20073;-72
2022/04/19 04:16:40;;;;;;;26.55;17.92;;;;;;;5.45;74.66;101362.94;5111396;28;20038;-72
2022/04/19 04:19:05;;;;;;;26.05;18.02;;;;;;;5.43;74.67;101361.19;5105521;28;20102;-72
2022/04/19 04:21:31;;;;;;;26.40;19.00;;;;;;;5.40;74.62;101359.50;5110011;28;20027;-72
2022/04/19 04:23:56;;;;;;;27.63;18.42;;;;;;;5.35;74.71;101356.84;5109782;28;20488;-72
2022/04/19 04:26:21;;;;;;;26.20;18.50;;;;;;;5.38;75.12;101361.19;5110186;28;20032;-72
2022/04/19 04:28:47;;;;;;;26.20;18.30;;;;;;;5.36;75.07;101362.88;5106998;28;20043;-72
2022/04/19 04:31:12;;;;;;;26.63;18.02;;;;;;;5.35;74.90;101364.63;5110744;28;20035;-72
2022/04/19 04:33:37;;;;;;;26.25;18.88;;;;;;;5.33;75.41;101361.16;5108847;28;20441;-71
2022/04/19 04:36:03;;;;;;;26.45;17.98;;;;;;;5.30;74.89;101368.03;5110402;28;20024;-71
2022/04/19 04:38:28;;;;;;;26.73;18.23;;;;;;;5.29;75.27;101358.53;5109808;28;20034;-71
2022/04/19 04:40:53;;;;;;;26.80;18.17;;;;;;;5.28;75.41;101368.03;5113457;27;20028;-72
2022/04/19 04:43:18;;;;;;;24.55;17.85;;;;;;;5.28;75.44;101368.03;5113665;28;20348;-71
2022/04/19 04:45:44;;;;;;;24.13;17.90;;;;;;;5.27;75.89;101361.13;5115165;28;20024;-71
2022/04/19 04:50:53;;;;;;;28.65;18.67;;;;;;;5.25;75.42;101362.81;5112957;28;20105;-71
2022/04/19 04:53:18;;;;;;;23.23;18.23;;;;;;;5.26;75.80;101372.31;5114268;28;20047;-71
2022/04/19 04:55:43;;;;;;;25.60;18.35;;;;;;;5.23;75.61;101355.91;5114325;28;20042;-72
2022/04/19 04:58:11;;;;;;;29.00;18.48;;;;;;;5.31;76.26;101369.78;5114361;28;20487;-72
2022/04/19 05:00:37;;;;;;;28.45;18.30;;;;;;;5.36;75.86;101370.66;5105686;28;20020;-72
2022/04/19 05:03:02;;;;;;;27.20;18.27;;;;;;;5.38;76.02;101371.53;5113175;28;20034;-72
2022/04/19 05:05:27;;;;;;;27.10;18.10;;;;;;;5.41;75.95;101358.63;5094462;28;20373;-72
2022/04/19 05:07:53;;;;;;;28.55;18.52;;;;;;;5.50;76.50;101369.03;5094121;28;20036;-72
2022/04/19 05:10:18;;;;;;;29.60;17.98;;;;;;;5.58;77.25;101371.66;5106430;28;20386;-72
2022/04/19 05:12:43;;;;;;;27.75;17.92;;;;;;;5.60;76.58;101369.94;5112706;28;20110;-72
2022/04/19 05:15:09;;;;;;;31.63;18.67;;;;;;;5.64;76.86;101367.38;5113036;28;20368;-72
2022/04/19 05:17:34;;;;;;;26.65;19.10;;;;;;;5.70;77.49;101376.03;5111371;28;20031;-71
2022/04/19 05:20:00;;;;;;;26.40;17.90;;;;;;;5.74;76.66;101372.59;5105926;28;20470;-71
2022/04/19 05:22:25;;;;;;;29.20;18.25;;;;;;;5.82;77.69;101376.97;5113898;28;20103;-71
2022/04/19 05:24:51;;;;;;;30.08;18.33;;;;;;;5.90;77.13;101376.13;5113598;28;20084;-72
2022/04/19 05:27:16;;;;;;;31.42;19.35;;;;;;;5.95;77.02;101377.03;5114799;28;20356;-72
2022/04/19 05:29:42;;;;;;;36.33;19.00;;;;;;;6.03;76.84;101377.94;5111136;27;20110;-71
2022/04/19 05:32:08;;;;;;;31.08;17.38;;;;;;;6.14;75.32;101376.22;5114275;28;20387;-72
2022/04/19 05:34:33;;;;;;;30.02;18.27;;;;;;;6.21;73.86;101384.88;5111071;28;20071;-72
2022/04/19 05:36:58;;;;;;;32.53;18.00;;;;;;;6.31;75.32;101384.94;5110622;28;20494;-72
2022/04/19 05:39:23;;;;;;;28.65;18.83;;;;;;;6.39;73.39;101378.91;5111677;28;20095;-71
2022/04/19 05:41:49;;;;;;;24.13;16.83;;;;;;;6.48;74.36;101373.75;5113265;28;20032;-72
2022/04/19 05:44:14;;;;;;;30.15;18.10;;;;;;;6.59;73.86;101374.63;5105018;28;20032;-71
2022/04/19 05:46:40;;;;;;;35.08;18.17;;;;;;;6.68;73.45;101378.97;5101423;28;20081;-72
2022/04/19 05:49:06;;;;;;;26.48;16.48;;;;;;;6.79;70.16;101372.91;5094492;28;20101;-72
2022/04/19 05:51:32;;;;;;;23.00;15.63;;;;;;;6.93;70.33;101380.72;5111404;28;20482;-72
2022/04/19 05:53:57;;;;;;;24.55;15.68;;;;;;;7.03;70.22;101378.97;5113831;28;20032;-72
2022/04/19 05:56:23;;;;;;;23.67;15.63;;;;;;;7.08;68.26;101376.38;5114251;28;20110;-72
2022/04/19 05:58:48;;;;;;;28.30;15.07;;;;;;;7.21;67.41;101378.94;5111336;28;20030;-72
2022/04/19 06:01:13;;;;;;;22.08;15.50;;;;;;;7.37;68.34;101385.00;5098668;28;20035;-72
2022/04/19 06:06:22;;;;;;;20.63;14.43;;;;;;;7.66;65.45;101390.13;5113431;28;20034;-71
2022/04/19 06:08:49;;;;;;;23.20;15.52;;;;;;;7.76;65.81;101388.34;5112910;28;20107;-72
2022/04/19 06:11:15;;;;;;;27.23;15.45;;;;;;;7.82;65.13;101388.34;5110859;28;20031;-72
2022/04/19 06:13:41;;;;;;;24.70;14.55;;;;;;;7.91;65.89;101387.44;5101180;28;20047;-72
2022/04/19 06:16:06;;;;;;;24.23;14.45;;;;;;;8.06;65.14;101391.72;5106713;28;20024;-72
2022/04/19 06:18:32;;;;;;;20.65;14.52;;;;;;;8.14;63.61;101401.19;5099923;28;20028;-72
2022/04/19 06:20:57;;;;;;;23.63;15.48;;;;;;;8.28;63.42;101398.53;5112288;28;20027;-72
2022/04/19 06:23:25;;;;;;;23.25;15.90;;;;;;;8.40;62.54;101401.09;5113556;28;20463;-72
2022/04/19 06:25:50;;;;;;;24.02;14.30;;;;;;;8.44;62.97;101384.63;5113363;28;20423;-72
2022/04/19 06:28:16;;;;;;;22.90;14.07;;;;;;;8.61;61.54;101388.84;5112883;28;20028;-71
2022/04/19 06:30:41;;;;;;;24.30;14.48;;;;;;;8.69;61.26;101392.25;5112772;28;20383;-72
2022/04/19 06:33:06;;;;;;;21.95;13.85;;;;;;;8.75;61.00;101389.59;5101683;28;20020;-72
2022/04/19 06:35:32;;;;;;;25.23;13.55;;;;;;;8.84;62.14;101393.88;5110970;28;20410;-72
2022/04/19 06:37:57;;;;;;;21.17;13.48;;;;;;;8.96;59.83;101393.78;5102242;28;20030;-72
2022/04/19 06:40:22;;;;;;;22.67;14.35;;;;;;;9.07;59.86;101386.75;5112194;28;20028;-72
2022/04/19 06:42:48;;;;;;;19.77;14.55;;;;;;;9.26;59.79;101391.81;5110061;28;20053;-72
2022/04/19 06:45:14;;;;;;;23.83;14.20;;;;;;;9.37;60.19;101392.56;5095912;28;20035;-72
2022/04/19 06:47:40;;;;;;;23.48;13.02;;;;;;;9.51;59.72;101397.63;5107335;28;20019;-72
2022/04/19 06:50:06;;;;;;;21.73;14.57;;;;;;;9.66;58.75;101397.47;5111841;28;20027;-72
2022/04/19 06:52:32;;;;;;;22.63;14.40;;;;;;;9.74;58.23;101385.22;5108477;28;20040;-73
2022/04/19 06:54:57;;;;;;;21.50;13.63;;;;;;;9.92;57.78;101399.78;5106957;28;20019;-73
2022/04/19 06:57:22;;;;;;;19.67;13.52;;;;;;;10.02;57.03;101400.53;5092625;28;20047;-72
2022/04/19 06:59:48;;;;;;;19.23;13.02;;;;;;;10.13;57.19;101398.63;5092029;28;20038;-72
2022/04/19 07:02:14;;;;;;;24.33;13.85;;;;;;;10.18;57.75;101399.44;5094427;28;20032;-73
2022/04/19 07:04:41;;;;;;;17.98;12.45;;;;;;;10.24;56.25;101390.69;5091578;28;20498;-73
2022/04/19 07:07:07;;;;;;;19.73;13.50;;;;;;;10.32;56.68;101402.75;5093594;28;20066;-73
2022/04/19 07:09:32;;;;;;;21.00;13.13;;;;;;;10.48;55.86;101399.94;5091257;28;20028;-73
2022/04/19 07:11:57;;;;;;;23.75;12.88;;;;;;;10.52;55.86;101397.25;5092185;28;20593;-73
2022/04/19 07:14:23;;;;;;;19.63;12.40;;;;;;;10.66;55.86;101409.25;5092254;28;20028;-73
2022/04/19 07:16:48;;;;;;;18.70;12.35;;;;;;;10.72;55.00;101399.56;5091109;28;20106;-73
2022/04/19 07:19:13;;;;;;;18.15;12.20;;;;;;;10.84;54.79;101400.28;5099298;27;20116;-72
2022/04/19 07:27:06;;;;;;;17.13;11.50;;;;;;;11.17;52.90;101393.66;5112983;28;19918;-72
2022/04/19 07:29:31;;;;;;;20.92;13.40;;;;;;;11.25;53.91;101399.63;5110317;28;20020;-73
2022/04/19 07:31:57;;;;;;;19.73;12.02;;;;;;;11.34;53.88;101399.44;5106999;28;20057;-73
2022/04/19 07:34:22;;;;;;;18.38;11.68;;;;;;;11.45;51.86;101402.72;5111749;28;20486;-73
2022/04/19 07:36:48;;;;;;;22.67;11.35;;;;;;;11.55;51.40;101411.25;5110561;28;20031;-73
2022/04/19 07:39:13;;;;;;;18.52;11.60;;;;;;;11.58;51.89;101405.97;5112344;28;20031;-73
2022/04/19 07:41:40;;;;;;;19.17;10.85;;;;;;;11.65;50.58;101414.56;5109768;28;20020;-72
2022/04/19 07:44:08;;;;;;;16.55;10.57;;;;;;;11.75;50.07;101421.31;5109699;28;20747;-73
2022/04/19 07:46:34;;;;;;;16.27;10.63;;;;;;;11.86;50.41;101408.09;5111420;28;20024;-73
2022/04/19 07:49:00;;;;;;;17.15;10.48;;;;;;;12.00;48.62;101413.03;5123369;28;20027;-73
2022/04/19 07:51:26;;;;;;;15.63;10.20;;;;;;;12.08;49.97;101409.38;5111793;28;20031;-73
2022/04/19 07:53:52;;;;;;;17.55;10.65;;;;;;;12.22;49.92;101418.69;5111480;28;20044;-73
2022/04/19 07:56:18;;;;;;;16.83;10.43;;;;;;;12.33;49.02;101416.72;5112350;28;20028;-73
2022/04/19 07:58:46;;;;;;;16.75;9.82;;;;;;;12.37;49.58;101406.16;5111129;28;20498;-73
2022/04/19 08:01:12;;;;;;;15.70;9.57;;;;;;;12.54;49.00;101418.84;5107060;28;20020;-73
2022/04/19 08:03:38;;;;;;;16.55;10.13;;;;;;;12.67;47.94;101413.34;5105436;28;20028;-73
2022/04/19 08:06:04;;;;;;;14.10;9.50;;;;;;;12.73;48.69;101411.44;5104258;28;20040;-73
2022/04/19 08:08:29;;;;;;;15.75;9.73;;;;;;;12.80;48.99;101406.91;5093030;27;20023;-73
2022/04/19 08:10:55;;;;;;;18.70;10.13;;;;;;;12.91;48.70;101412.75;5104581;28;20031;-73
2022/04/19 08:13:20;;;;;;;17.25;9.75;;;;;;;12.99;48.58;101404.72;5110720;28;20035;-73
2022/04/19 08:15:46;;;;;;;19.25;9.75;;;;;;;13.03;48.90;101402.00;5111592;28;20457;-73
2022/04/19 08:18:14;;;;;;;15.18;9.18;;;;;;;13.09;48.89;101393.13;5106556;28;20024;-73
2022/04/19 08:20:40;;;;;;;18.23;9.90;;;;;;;13.21;49.06;101398.06;5111886;28;20028;-73
2022/04/19 08:23:07;;;;;;;14.90;9.63;;;;;;;13.32;47.69;101398.66;5107627;27;20032;-74
2022/04/19 08:25:34;;;;;;;20.10;9.73;;;;;;;13.44;45.84;101397.50;5113163;28;20023;-73
2022/04/19 08:27:59;;;;;;;12.82;8.75;;;;;;;13.48;46.62;101395.66;5114067;27;20097;-73
2022/04/19 08:30:24;;;;;;;14.90;8.30;;;;;;;13.61;46.38;101398.81;5114745;27;20510;-73
2022/04/19 08:32:50;;;;;;;14.10;8.75;;;;;;;13.70;45.80;101393.28;5112151;28;20039;-73
2022/04/19 08:35:17;;;;;;;13.57;8.10;;;;;;;13.70;46.00;101388.94;5114174;28;20039;-73
2022/04/19 08:37:42;;;;;;;15.27;7.53;;;;;;;13.84;45.97;101395.56;5113125;28;20061;-72
2022/04/19 08:40:10;;;;;;;13.40;8.30;;;;;;;13.89;44.83;101393.66;5112008;28;20059;-72
2022/04/19 08:42:38;;;;;;;13.85;8.70;;;;;;;13.99;45.17;101385.47;5113784;27;20035;-73
2022/04/19 08:45:04;;;;;;;12.23;8.60;;;;;;;13.98;45.43;101388.16;5095487;27;20036;-72
2022/04/19 08:47:32;;;;;;;11.77;8.27;;;;;;;14.13;44.49;101381.59;5094285;28;20081;-72
2022/04/19 08:50:02;;;;;;;10.60;7.57;;;;;;;14.29;44.92;101383.72;5113698;28;20039;-73
2022/04/19 08:52:28;;;;;;;12.43;7.55;;;;;;;14.49;44.76;101390.13;5103582;28;20034;-73
2022/04/19 08:57:37;;;;;;;13.73;7.72;;;;;;;14.75;43.84;101392.81;5094218;28;20059;-71
2022/04/19 09:00:05;;;;;;;15.15;7.97;;;;;;;14.89;43.10;101384.47;5109744;28;20455;-72
2022/04/19 09:02:32;;;;;;;11.13;7.28;;;;;;;15.01;44.45;101399.00;5111165;28;20043;-73
2022/04/19 09:05:12;;;;;;;10.90;7.47;;;;;;;15.02;42.73;101395.44;5115105;28;20031;-73
2022/04/19 09:07:37;;;;;;;12.80;6.78;;;;;;;14.99;41.55;101383.28;5095558;28;20529;-72
2022/04/19 09:10:06;;;;;;;13.27;6.97;;;;;;;15.02;40.20;101381.47;5111063;28;20031;-72
2022/04/19 09:12:31;;;;;;;10.75;7.57;;;;;;;15.06;41.22;101377.81;5104984;28;20027;-73
2022/04/19 09:15:06;;;;;;;11.25;6.65;;;;;;;15.17;42.42;101378.31;5112967;28;20043;-72
2022/04/19 09:17:40;;;;;;;9.02;5.75;;;;;;;15.31;41.49;101375.22;5113615;28;20036;-72
2022/04/19 09:20:15;;;;;;;12.32;6.03;;;;;;;15.35;41.18;101376.81;5114796;28;20035;-72
2022/04/19 09:22:42;;;;;;;10.05;6.32;;;;;;;15.36;39.64;101379.38;5107006;28;20020;-73
2022/04/19 09:25:18;;;;;;;9.15;5.75;;;;;;;15.31;40.30;101381.34;5104401;28;20027;-72
2022/04/19 09:27:45;;;;;;;12.73;6.63;;;;;;;15.31;40.04;101376.06;5113339;28;20047;-72
2022/04/19 09:30:34;;;;;;;10.18;6.45;;;;;;;15.35;41.17;101367.16;5114335;28;20034;-73
2022/04/19 09:33:02;;;;;;;10.05;6.05;;;;;;;15.50;39.31;101363.16;5113385;28;20024;-73
2022/04/19 09:35:29;;;;;;;13.80;5.88;;;;;;;15.59;39.46;101370.69;5100032;28;20077;-72
2022/04/19 09:37:55;;;;;;;10.43;5.55;;;;;;;15.77;39.16;101371.00;5093912;28;20024;-72
2022/04/19 09:40:27;;;;;;;7.50;5.03;;;;;;;15.89;40.69;101367.88;5112788;28;20039;-73
2022/04/19 09:42:54;;;;;;;9.05;5.65;;;;;;;16.07;39.22;101372.47;5113904;28;20034;-73
2022/04/19 09:45:20;;;;;;;8.48;5.40;;;;;;;16.25;38.40;101372.66;5094912;28;20076;-73
2022/04/19 09:47:51;;;;;;;11.45;5.32;;;;;;;16.42;39.85;101367.63;5107005;28;20128;-73
2022/04/19 09:50:17;;;;;;;7.68;5.28;;;;;;;16.54;39.19;101364.47;5112142;28;20061;-73
2022/04/19 09:52:48;;;;;;;8.07;5.05;;;;;;;16.68;39.27;101366.59;5093276;28;20123;-73
2022/04/19 09:55:14;;;;;;;8.70;4.72;;;;;;;16.71;37.46;101358.56;5093884;28;20424;-73
2022/04/19 09:57:41;;;;;;;9.77;5.43;;;;;;;16.79;38.09;101366.16;5095628;28;20103;-73
2022/04/19 10:00:07;;;;;;;8.88;5.68;;;;;;;16.96;38.95;101358.41;5103138;28;20046;-73
2022/04/19 10:08:13;;;;;;;10.32;4.75;;;;;;;17.12;36.13;101356.00;5111829;28;20066;-73
2022/04/19 10:10:39;;;;;;;7.70;4.65;;;;;;;17.18;35.94;101357.53;5113287;28;20028;-73
2022/04/19 10:13:06;;;;;;;9.85;4.90;;;;;;;17.25;35.93;101353.69;5104822;28;20027;-73
2022/04/19 10:15:36;;;;;;;9.07;5.00;;;;;;;17.47;38.61;101346.56;5103157;28;20029;-73
2022/04/19 10:18:06;;;;;;;9.27;4.85;;;;;;;17.64;35.63;101351.09;5100252;28;20113;-73
2022/04/19 10:20:33;;;;;;;8.50;4.40;;;;;;;17.74;34.70;101339.19;5094770;28;20032;-73
2022/04/19 10:23:03;;;;;;;8.50;4.63;;;;;;;17.80;36.49;101343.38;5113575;28;20541;-73
2022/04/19 10:25:44;;;;;;;13.30;5.00;;;;;;;17.80;35.29;101351.28;5110301;27;20015;-73
2022/04/19 10:28:26;;;;;;;9.00;4.80;;;;;;;17.73;34.70;101347.19;5098583;28;20041;-73
2022/04/19 10:30:53;;;;;;;6.72;4.50;;;;;;;17.65;34.91;101344.03;5109798;28;20117;-73
2022/04/19 10:33:53;;;;;;;9.63;5.25;;;;;;;17.79;36.48;101352.22;5108346;27;20030;-73
2022/04/19 10:36:22;;;;;;;12.63;5.85;;;;;;;17.91;36.99;101342.88;5094744;28;20088;-73
2022/04/19 10:39:15;;;;;;;10.68;5.68;;;;;;;17.91;36.35;101348.16;5112656;28;20015;-73
2022/04/19 10:41:52;;;;;;;10.02;5.95;;;;;;;18.13;36.82;101338.31;5112214;28;20046;-73
2022/04/19 10:44:23;;;;;;;10.32;5.85;;;;;;;18.27;34.45;101336.81;5107844;28;20051;-73
2022/04/19 10:47:12;;;;;;;18.42;6.13;;;;;;;18.32;35.07;101340.94;5097360;28;20059;-73
2022/04/19 10:50:00;;;;;;;13.57;5.97;;;;;;;18.43;35.27;101340.41;5118041;27;20026;-73
2022/04/19 10:52:40;;;;;;;9.85;5.78;;;;;;;18.62;36.40;101335.94;5133357;27;20070;-73
2022/04/19 10:55:08;;;;;;;10.52;5.45;;;;;;;18.80;34.74;101331.59;5104036;27;20028;-73
2022/04/19 11:00:35;;;;;;;8.80;5.68;;;;;;;19.01;35.13;101315.56;5112622;28;20140;-74
2022/04/19 11:03:03;;;;;;;9.82;4.75;;;;;;;19.11;32.11;101322.09;5112338;28;20026;-84
2022/04/19 11:05:43;;;;;;;7.60;4.90;;;;;;;19.09;33.05;101324.81;5111702;27;20028;-83
2022/04/19 11:08:24;;;;;;;10.75;4.50;;;;;;;19.21;34.73;101309.25;5111104;28;20383;-83
2022/04/19 11:11:21;;;;;;;9.43;4.03;;;;;;;19.48;33.33;101314.88;5111799;28;20408;-84
2022/04/19 11:14:28;;;;;;;8.07;4.72;;;;;;;19.59;32.47;101307.25;5112122;28;20088;-85
2022/04/19 11:17:18;;;;;;;9.32;5.00;;;;;;;19.63;31.69;101311.41;5090012;28;20036;-79
2022/04/19 11:20:12;;;;;;;9.75;5.28;;;;;;;19.84;33.09;101320.00;5112246;28;20030;-79
2022/04/19 11:22:53;;;;;;;12.65;5.10;;;;;;;20.02;31.80;101304.91;5111396;28;20034;-79
2022/04/19 11:25:39;;;;;;;10.23;4.45;;;;;;;20.27;32.26;101307.03;5112707;28;20023;-78
2022/04/19 11:28:08;;;;;;;7.35;5.18;;;;;;;20.49;32.95;101309.31;5112429;28;20473;-79
2022/04/19 11:30:34;;;;;;;9.48;5.45;;;;;;;20.47;31.54;101303.22;5108275;27;20032;-79
2022/04/19 11:32:59;;;;;;;9.43;6.55;;;;;;;20.43;32.43;101301.72;5126957;27;20084;-79
2022/04/19 11:35:26;;;;;;;13.23;6.57;;;;;;;20.41;30.37;101306.25;5110730;28;20118;-80
2022/04/19 11:37:52;;;;;;;11.40;5.28;;;;;;;20.35;31.03;101300.38;5110551;28;20110;-79
2022/04/19 11:48:45;;;;;;;9.68;6.30;;;;;;;21.27;29.99;101300.25;5115493;27;20031;-79
2022/04/19 11:51:13;;;;;;;9.73;5.95;;;;;;;21.94;29.67;101291.69;5101446;28;20524;-80
2022/04/19 11:53:38;;;;;;;8.95;5.68;;;;;;;22.80;30.34;101296.72;5106509;27;20015;-80
2022/04/19 11:56:06;;;;;;;13.70;6.47;;;;;;;23.29;26.32;101291.56;5116513;27;20023;-79
2022/04/19 11:58:31;;;;;;;10.05;6.63;;;;;;;24.16;28.34;101288.94;5106923;27;20054;-79
2022/04/19 12:01:04;;;;;;;11.68;6.85;;;;;;;25.07;26.33;101293.66;5115469;28;20630;-79